< < Back
Terminal Aerodrome Forecast


Current Version              Previous Versions:   1  2  3  4  5  6  7  8  9  

Terminal Aerodrome Forecast

979
FTUS42 KGSP 161700
TAFHKY
TAF
KHKY 161737Z 1618/1718 07007KT P6SM SKC
     FM171400 05010KT P6SM SCT250=



Latest METAR

073
SAUS70 KWBC 170700 RRC
MTRHKY
METAR KHKY 170653Z 00000KT 10SM CLR 03/M02 A3044 RMK AO2 SLP301
T00281017


USA.gov is the U.S. government's official web portal to all federal, state and local government web resources and services.